createdAt,value
2022-07-28T00:00:23.256Z,100.00
2022-07-28T00:15:23.513Z,100.00
2022-07-28T00:30:23.581Z,100.00
2022-07-28T00:45:23.273Z,100.00
2022-07-28T01:00:23.520Z,100.00
2022-07-28T01:15:23.548Z,100.00
2022-07-28T01:30:27.678Z,100.00
2022-07-28T01:45:23.434Z,100.00
2022-07-28T02:00:23.457Z,100.00
2022-07-28T02:15:23.514Z,100.00
2022-07-28T02:30:23.667Z,100.00
2022-07-28T02:45:23.500Z,100.00
2022-07-28T03:00:23.489Z,100.00
2022-07-28T03:15:23.605Z,100.00
2022-07-28T03:30:24.140Z,100.00
2022-07-28T03:45:23.740Z,100.00
2022-07-28T04:00:26.097Z,100.00
2022-07-28T04:15:24.293Z,100.00
2022-07-28T04:30:23.957Z,100.00
2022-07-28T04:45:24.099Z,100.00
2022-07-28T05:00:24.789Z,100.00
2022-07-28T05:15:23.908Z,100.00
2022-07-28T05:30:23.867Z,100.00
2022-07-28T05:45:24.394Z,100.00
2022-07-28T06:00:24.228Z,100.00
2022-07-28T06:15:23.749Z,100.00
2022-07-28T06:30:23.844Z,100.00
2022-07-28T06:45:23.853Z,92.60
2022-07-28T07:00:24.411Z,72.73
2022-07-28T07:15:24.018Z,60.35
2022-07-28T07:30:23.839Z,57.57
2022-07-28T07:45:23.936Z,54.67
2022-07-28T08:00:28.547Z,54.87
2022-07-28T08:15:24.046Z,61.60
2022-07-28T08:30:27.534Z,59.85
2022-07-28T08:45:24.244Z,66.00
2022-07-28T09:00:24.051Z,76.73
2022-07-28T09:15:24.042Z,80.65
2022-07-28T09:30:33.275Z,83.17
2022-07-28T09:45:33.289Z,85.05
2022-07-28T10:00:33.465Z,83.13
2022-07-28T10:15:31.137Z,80.27
2022-07-28T10:30:23.146Z,76.87
2022-07-28T10:45:26.506Z,78.07
2022-07-28T11:00:26.552Z,78.80
2022-07-28T11:15:23.229Z,72.33
2022-07-28T11:30:23.372Z,68.80
2022-07-28T11:45:23.326Z,60.80
2022-07-28T12:00:23.218Z,53.27
2022-07-28T12:15:23.393Z,48.25
2022-07-28T12:30:24.076Z,48.93
2022-07-28T12:45:23.479Z,53.03
2022-07-28T13:00:23.676Z,49.37
2022-07-28T13:15:23.336Z,48.03
2022-07-28T13:30:23.653Z,44.10
2022-07-28T13:45:23.417Z,42.40
2022-07-28T14:00:23.474Z,42.55
2022-07-28T14:15:23.557Z,42.43
2022-07-28T14:30:23.504Z,41.40
2022-07-28T14:45:23.465Z,40.40
2022-07-28T15:00:23.550Z,40.40
2022-07-28T15:15:23.601Z,39.13
2022-07-28T15:30:23.659Z,40.97
2022-07-28T15:45:23.560Z,41.20
2022-07-28T16:00:23.627Z,41.37
2022-07-28T16:15:23.657Z,41.67
2022-07-28T16:30:23.640Z,42.33
2022-07-28T16:45:23.629Z,42.27
2022-07-28T17:00:23.608Z,44.03
2022-07-28T17:15:23.724Z,43.00
2022-07-28T17:30:23.783Z,44.27
2022-07-28T17:45:24.209Z,47.07
2022-07-28T18:00:24.014Z,50.80
2022-07-28T18:15:24.986Z,60.40
2022-07-28T18:30:23.869Z,61.63
2022-07-28T18:45:23.803Z,61.80
2022-07-28T19:00:23.824Z,66.50
2022-07-28T19:15:24.147Z,65.77
2022-07-28T19:30:24.074Z,93.77
2022-07-28T19:45:24.040Z,100.00
2022-07-28T20:00:24.176Z,100.00
2022-07-28T20:15:24.037Z,100.00
2022-07-28T20:30:24.078Z,100.00
2022-07-28T20:45:24.214Z,100.00
2022-07-28T21:00:32.994Z,100.00
2022-07-28T21:15:23.252Z,100.00
2022-07-28T21:30:27.660Z,100.00
2022-07-28T21:45:23.240Z,100.00
2022-07-28T22:15:23.301Z,100.00
2022-07-28T22:30:23.330Z,100.00
2022-07-28T22:45:51.085Z,100.00
2022-07-28T23:00:23.440Z,100.00
2022-07-28T23:15:23.478Z,100.00
2022-07-28T23:30:23.504Z,100.00
2022-07-28T23:45:23.513Z,100.00
